X  Cerrar Datos meteorológicos de aviación METAR     LEAL Alicante-Elche Miguel Hernández Airport
Temperatura
72°F Temperatura
57°F Punto de rocío
61% Humedad



Viento
9 MPH
14 KM/H
4 M/S
8 NUDO



120°
ESE
Condiciones actuales

Parcialmente nublado Parcialmente nublado
Presión 1009.82 (hPa) - 29.82 (inHg)
Visibilidad 6 (milla) - 9.7 (km)
Aeropuerto
Código de aeropuerto LEAL

Localidad: Alicante-Elche Miguel Hernández Airport
Distancia: 60 (mi)

Metar:
LEAL 181600Z 12008KT 080V160 9999 FEW018 22/14 Q1010 NOSIG

Hora: 18-05-2024 18:00 CEST